Kafr el-Dauwar, Egypt
Current Conditions -  °F | °C
As of 3:00 AM on Sunday 26 Oct 2014 (Local Time) from HEAX Reporting Station
Clear Clear  
Wind Chill: 64°   Ceiling: Unl
Heat Index: 64°   Visibility: 6mi
Dew Point: 61°   Wind: 0mph
Humidity: 88%   Direction: NA
Pressure: 29.91"   Gusts: NA
Location:  31.13°N, 30.12°E
Report Text: HEAX 260100Z 00000KT CAVOK 18/16 Q1013 NOSIG
Loading
Personal Weather Stations






























Interactive Weather Map
Tropical Storm Tracking
New forecast layout! Learn more

10-Day Weather Forecast

Advertisements
Track Severe Weather on mobile